Terminal Aerodrome Forecast
Issued by NWS

Home | Current Version | Previous Version | Graphics & Text | Print | Product List | Glossary On
Versions: 1 2 3 4 5 6 7 8 9 10 11 12 13 14 15 16 17
061
FTUS43 KIWX 221139
TAFSBN
TAF
KSBN 221139Z 2212/2312 07008KT P6SM SCT015 BKN050
      TEMPO 2213/2215 BKN015
     FM221600 08010KT P6SM BKN025
     FM222300 09010KT P6SM OVC015
     FM230300 11011KT P6SM OVC008
     FM230600 12012KT 6SM -RA BR OVC008
     FM230900 13010KT 2SM -RA BR OVC005=

USA.gov is the U.S. government's official web portal to all federal, state and local government web resources and services.